Airfield :
LOGIN :

Register | Disclaimer

   EN    FR    IT 

 










Legend :    VFR   Marginal VFR   IFR   Intensive IFR   Very Intensive IFR
Visi :
Ceiling :
>= 8 km
>= 3000ft
5 to 8 km
1000 to 3000 ft
1500m to 5 km
500 to 1000 ft
800 to 1500m
200 to 500 ft
< 800m
< 200 ft
Symbols :   Thunderstorms  Fog  Heavy snow  Heavy precipitations  Wind > 20 kt
SIGMETs :     Misc.  Thunderstorms  Icing  Turbulence  Mountain Waves  Volcanic Ashes






- Airport Elevation : 1503 ft
- IATA code : HMV


ESUT - Hemavan

CURRENT METAR :
  • 200050Z AUTO 28013KT 9999 FEW032/// OVC110/// M05/M09 Q0992

EXPIRED METARs :
  • 200020Z AUTO 33019KT 2400 -SN SCT039/// BKN066/// BKN088/// M05/M08 Q0991
  • 192350Z AUTO 32015KT 6000 -SN SCT012/// BKN017/// BKN037/// M05/M07 Q0991
  • 192320Z AUTO 31013KT 1200 R33/P2000N -SN VV014 M05/M06 Q0990
  • 192250Z AUTO 30008KT 9999 -SN FEW009/// OVC034/// M05/M08 Q0989
  • 192220Z AUTO 30007KT 2900 -SN ///031/// M06/M08 Q0989

TAF N/A



MET'MAP, your aeronautical weather chart ! - Copyright ORBIFLY December 2007 - Disclaimer

ORBIFLY MET'MAP TEAM :

Programming & Development : Alexandra Zaïnal
Concept & original design : Baudouin d'Aumeries
Assistance for programming : Marc-Olivier Méhu
Technical & hardware support : Manuel Goepfert

Contact : metmap@orbifly.com




SOURCES & CREDITS :

   NOAA